createdAt,value
2022-10-09T00:00:05.727Z,0.00
2022-10-09T00:01:02.637Z,0.00
2022-10-09T00:02:02.649Z,0.00
2022-10-09T00:03:02.605Z,0.00
2022-10-09T00:04:02.644Z,0.00
2022-10-09T00:05:02.644Z,0.00
2022-10-09T00:06:02.612Z,0.00
2022-10-09T00:07:02.582Z,0.00
2022-10-09T00:08:02.534Z,0.00
2022-10-09T00:09:02.535Z,0.00
2022-10-09T00:10:02.528Z,0.00
2022-10-09T00:11:02.555Z,0.00
2022-10-09T00:12:02.486Z,0.00
2022-10-09T00:13:02.479Z,0.00
2022-10-09T00:14:02.488Z,0.00
2022-10-09T00:15:02.463Z,0.00
2022-10-09T00:16:02.426Z,0.00
2022-10-09T00:17:02.496Z,0.00
2022-10-09T00:18:02.413Z,0.00
2022-10-09T00:19:05.392Z,0.00
2022-10-09T00:20:05.392Z,0.00
2022-10-09T00:21:02.379Z,0.00
2022-10-09T00:22:02.355Z,0.00
2022-10-09T00:23:02.388Z,0.00
2022-10-09T00:24:02.320Z,0.00
2022-10-09T00:25:02.367Z,0.00
2022-10-09T00:26:02.297Z,0.00
2022-10-09T00:27:02.298Z,0.00
2022-10-09T00:28:02.293Z,0.00
2022-10-09T00:29:02.260Z,0.00
2022-10-09T00:30:02.240Z,0.00
2022-10-09T00:31:02.330Z,0.00
2022-10-09T00:32:02.246Z,0.00
2022-10-09T00:33:02.201Z,0.00
2022-10-09T00:34:02.208Z,0.00
2022-10-09T00:35:02.192Z,0.00
2022-10-09T00:36:02.151Z,0.00
2022-10-09T00:37:02.168Z,0.00
2022-10-09T00:38:02.134Z,0.00
2022-10-09T00:39:05.117Z,0.00
2022-10-09T00:40:05.139Z,0.00
2022-10-09T00:41:02.084Z,0.00
2022-10-09T00:42:02.103Z,0.00
2022-10-09T00:43:02.062Z,0.00
2022-10-09T00:44:02.055Z,0.00
2022-10-09T00:45:02.034Z,0.00
2022-10-09T00:46:02.066Z,0.00
2022-10-09T00:47:02.045Z,0.00
2022-10-09T00:48:01.985Z,0.00
2022-10-09T00:49:01.990Z,0.00
2022-10-09T00:50:01.969Z,0.00
2022-10-09T00:51:01.973Z,0.00
2022-10-09T00:52:01.962Z,0.00
2022-10-09T00:53:01.978Z,0.00
2022-10-09T00:54:01.930Z,0.00
2022-10-09T00:55:01.893Z,0.00
2022-10-09T00:56:01.886Z,0.00
2022-10-09T00:57:01.894Z,0.00
2022-10-09T00:58:01.857Z,0.00
2022-10-09T00:59:04.919Z,0.00
2022-10-09T01:00:04.846Z,0.00
2022-10-09T01:01:01.904Z,0.00
2022-10-09T01:02:01.972Z,0.00
2022-10-09T01:03:01.788Z,0.00
2022-10-09T01:04:01.769Z,0.00
2022-10-09T01:05:01.803Z,0.00
2022-10-09T01:06:01.740Z,0.00
2022-10-09T01:07:01.743Z,0.00
2022-10-09T01:08:01.750Z,0.00
2022-10-09T01:09:01.733Z,0.00
2022-10-09T01:10:01.690Z,0.00
2022-10-09T01:11:01.691Z,0.00
2022-10-09T01:12:01.671Z,0.00
2022-10-09T01:13:01.672Z,0.00
2022-10-09T01:14:01.699Z,0.00
2022-10-09T01:15:01.634Z,0.00
2022-10-09T01:16:01.632Z,0.00
2022-10-09T01:17:01.602Z,0.00
2022-10-09T01:18:01.581Z,0.00
2022-10-09T01:19:04.593Z,0.00
2022-10-09T01:20:04.603Z,0.00
2022-10-09T01:21:01.543Z,0.00
2022-10-09T01:22:01.533Z,0.00
2022-10-09T01:23:01.516Z,0.00
2022-10-09T01:24:01.510Z,0.00
2022-10-09T01:25:01.498Z,0.00
2022-10-09T01:26:01.513Z,0.00
2022-10-09T01:27:01.456Z,0.00
2022-10-09T01:28:01.609Z,0.00
2022-10-09T01:29:01.449Z,0.00
2022-10-09T01:30:01.426Z,0.00
2022-10-09T01:31:01.587Z,0.00
2022-10-09T01:32:01.395Z,0.00
2022-10-09T01:33:01.376Z,0.00
2022-10-09T01:34:01.376Z,0.00
2022-10-09T01:35:01.355Z,0.00
2022-10-09T01:36:01.345Z,0.00
2022-10-09T01:37:01.346Z,0.00
2022-10-09T01:38:01.356Z,0.00
2022-10-09T01:39:04.310Z,0.00
2022-10-09T01:40:04.338Z,0.00
2022-10-09T01:41:01.278Z,0.00
2022-10-09T01:42:01.269Z,0.00
2022-10-09T01:43:01.286Z,0.00
2022-10-09T01:44:01.243Z,0.00
2022-10-09T01:45:01.208Z,0.00
2022-10-09T01:46:01.224Z,0.00
2022-10-09T01:47:01.199Z,0.00
2022-10-09T01:48:01.209Z,0.00
2022-10-09T01:49:01.177Z,0.00
2022-10-09T01:50:01.158Z,0.00
2022-10-09T01:51:01.146Z,0.00
2022-10-09T01:52:01.129Z,0.00
2022-10-09T01:53:01.144Z,0.00
2022-10-09T01:54:01.108Z,0.00
2022-10-09T01:55:01.092Z,0.00
2022-10-09T01:56:01.101Z,0.00
2022-10-09T01:57:01.067Z,0.00
2022-10-09T01:58:01.061Z,0.00
2022-10-09T01:59:04.043Z,0.00
2022-10-09T02:00:04.092Z,0.00
2022-10-09T02:01:01.001Z,0.00
2022-10-09T02:02:01.184Z,0.00
2022-10-09T02:03:01.034Z,0.00
2022-10-09T02:04:00.973Z,0.00
2022-10-09T02:05:00.942Z,0.00
2022-10-09T02:06:00.953Z,0.00
2022-10-09T02:07:00.932Z,0.00
2022-10-09T02:08:00.896Z,0.00
2022-10-09T02:09:00.901Z,0.00
2022-10-09T02:10:00.873Z,0.00
2022-10-09T02:11:00.894Z,0.00
2022-10-09T02:12:00.864Z,0.00
2022-10-09T02:13:00.846Z,0.00
2022-10-09T02:14:00.816Z,0.00
2022-10-09T02:15:00.806Z,0.00
2022-10-09T02:16:00.869Z,0.00
2022-10-09T02:17:00.787Z,0.00
2022-10-09T02:18:00.774Z,0.00
2022-10-09T02:19:03.986Z,0.00
2022-10-09T02:20:03.772Z,0.00
2022-10-09T02:21:00.736Z,0.00
2022-10-09T02:22:00.710Z,0.00
2022-10-09T02:23:00.705Z,0.00
2022-10-09T02:24:00.677Z,0.00
2022-10-09T02:25:00.697Z,0.00
2022-10-09T02:26:00.657Z,0.00
2022-10-09T02:27:00.657Z,0.00
2022-10-09T02:28:00.628Z,0.00
2022-10-09T02:29:00.639Z,0.00
2022-10-09T02:30:00.621Z,0.00
2022-10-09T02:31:00.676Z,0.00
2022-10-09T02:32:00.569Z,0.00
2022-10-09T02:33:00.576Z,0.00
2022-10-09T02:34:00.616Z,0.00
2022-10-09T02:35:00.559Z,0.00
2022-10-09T02:36:00.521Z,0.00
2022-10-09T02:37:00.521Z,0.00
2022-10-09T02:38:00.525Z,0.00
2022-10-09T02:39:03.509Z,0.00
2022-10-09T02:40:07.058Z,0.00
2022-10-09T02:41:01.463Z,0.00
2022-10-09T02:42:00.452Z,0.00
2022-10-09T02:43:00.420Z,0.00
2022-10-09T02:44:00.433Z,0.00
2022-10-09T02:45:00.391Z,0.00
2022-10-09T02:46:00.438Z,0.00
2022-10-09T02:47:00.385Z,0.00
2022-10-09T02:48:00.363Z,0.00
2022-10-09T02:49:00.396Z,0.00
2022-10-09T02:50:00.332Z,0.00
2022-10-09T02:51:00.314Z,0.00
2022-10-09T02:52:00.312Z,0.00
2022-10-09T02:53:00.286Z,0.00
2022-10-09T02:54:00.283Z,0.00
2022-10-09T02:55:00.313Z,0.00
2022-10-09T02:56:00.259Z,0.00
2022-10-09T02:57:00.302Z,0.00
2022-10-09T02:58:00.227Z,0.00
2022-10-09T02:59:03.205Z,0.00
2022-10-09T03:00:03.225Z,0.00
2022-10-09T03:01:00.184Z,0.00
2022-10-09T03:02:00.252Z,0.00
2022-10-09T03:03:00.243Z,0.00
2022-10-09T03:04:00.147Z,0.00
2022-10-09T03:05:00.106Z,0.00
2022-10-09T03:06:00.109Z,0.00
2022-10-09T03:07:00.089Z,0.00
2022-10-09T03:08:00.081Z,0.00
2022-10-09T03:09:00.096Z,0.00
2022-10-09T03:10:00.053Z,0.00
2022-10-09T03:11:00.075Z,0.00
2022-10-09T03:12:00.024Z,0.00
2022-10-09T03:13:00.041Z,0.00
2022-10-09T03:14:00.049Z,0.00
2022-10-09T03:15:00.008Z,0.00
2022-10-09T03:16:00.005Z,0.00
2022-10-09T03:16:59.959Z,0.00
2022-10-09T03:17:59.939Z,0.00
2022-10-09T03:19:02.978Z,0.00
2022-10-09T03:20:02.929Z,0.00
2022-10-09T03:20:59.900Z,0.00
2022-10-09T03:21:59.890Z,0.00
2022-10-09T03:22:59.890Z,0.00
2022-10-09T03:23:59.850Z,0.00
2022-10-09T03:24:59.915Z,0.00
2022-10-09T03:25:59.826Z,0.00
2022-10-09T03:26:59.811Z,0.00
2022-10-09T03:27:59.801Z,0.00
2022-10-09T03:28:59.781Z,0.00
2022-10-09T03:29:59.781Z,0.00
2022-10-09T03:30:59.880Z,0.00
2022-10-09T03:31:59.790Z,0.00
2022-10-09T03:32:59.742Z,0.00
2022-10-09T03:33:59.715Z,0.00
2022-10-09T03:34:59.704Z,0.00
2022-10-09T03:35:59.725Z,0.00
2022-10-09T03:36:59.692Z,0.00
2022-10-09T03:37:59.667Z,0.00
2022-10-09T03:39:02.663Z,0.00
2022-10-09T03:40:02.644Z,0.00
2022-10-09T03:40:59.632Z,0.00
2022-10-09T03:41:59.636Z,0.00
2022-10-09T03:42:59.604Z,0.00
2022-10-09T03:43:59.605Z,0.00
2022-10-09T03:44:59.566Z,0.00
2022-10-09T03:46:01.215Z,0.00
2022-10-09T03:46:59.586Z,0.00
2022-10-09T03:47:59.518Z,0.00
2022-10-09T03:48:59.543Z,0.00
2022-10-09T03:49:59.496Z,0.00
2022-10-09T03:50:59.517Z,0.00
2022-10-09T03:51:59.536Z,0.00
2022-10-09T03:52:59.457Z,0.00
2022-10-09T03:53:59.446Z,0.00
2022-10-09T03:54:59.428Z,0.00
2022-10-09T03:55:59.420Z,0.00
2022-10-09T03:56:59.408Z,0.00
2022-10-09T03:57:59.406Z,0.00
2022-10-09T03:59:02.373Z,0.00
2022-10-09T04:00:02.427Z,0.00
2022-10-09T04:00:59.392Z,0.00
2022-10-09T04:01:59.322Z,0.00
2022-10-09T04:02:59.384Z,0.00
2022-10-09T04:03:59.289Z,0.00
2022-10-09T04:04:59.280Z,0.00
2022-10-09T04:05:59.319Z,0.00
2022-10-09T04:06:59.252Z,0.00
2022-10-09T04:07:59.230Z,0.00
2022-10-09T04:08:59.224Z,0.00
2022-10-09T04:09:59.212Z,0.00
2022-10-09T04:10:59.193Z,0.00
2022-10-09T04:11:59.253Z,0.00
2022-10-09T04:12:59.170Z,0.00
2022-10-09T04:13:59.161Z,0.00
2022-10-09T04:14:59.132Z,0.00
2022-10-09T04:15:59.144Z,0.00
2022-10-09T04:16:59.125Z,0.00
2022-10-09T04:17:59.164Z,0.00
2022-10-09T04:19:02.451Z,0.00
2022-10-09T04:20:02.094Z,0.00
2022-10-09T04:20:59.065Z,0.00
2022-10-09T04:21:59.046Z,0.00
2022-10-09T04:22:59.026Z,0.00
2022-10-09T04:23:59.068Z,0.00
2022-10-09T04:24:59.006Z,0.00
2022-10-09T04:25:58.994Z,0.00
2022-10-09T04:26:58.976Z,0.00
2022-10-09T04:27:58.970Z,0.00
2022-10-09T04:28:58.946Z,0.00
2022-10-09T04:29:58.986Z,0.00
2022-10-09T04:30:58.927Z,0.00
2022-10-09T04:31:59.035Z,0.00
2022-10-09T04:32:58.896Z,0.00
2022-10-09T04:33:58.886Z,0.00
2022-10-09T04:34:58.865Z,0.00
2022-10-09T04:35:58.879Z,0.00
2022-10-09T04:36:58.838Z,0.00
2022-10-09T04:37:58.842Z,0.00
2022-10-09T04:39:01.808Z,0.00
2022-10-09T04:40:01.811Z,0.00
2022-10-09T04:40:58.779Z,0.00
2022-10-09T04:41:58.789Z,0.00
2022-10-09T04:42:58.800Z,0.00
2022-10-09T04:43:58.761Z,0.00
2022-10-09T04:44:58.722Z,0.00
2022-10-09T04:45:58.753Z,0.00
2022-10-09T04:46:58.691Z,0.00
2022-10-09T04:47:58.681Z,0.00
2022-10-09T04:48:58.690Z,0.00
2022-10-09T04:49:58.701Z,0.00
2022-10-09T04:50:58.630Z,0.00
2022-10-09T04:51:58.623Z,0.00
2022-10-09T04:52:58.660Z,0.00
2022-10-09T04:54:00.779Z,0.00
2022-10-09T04:54:58.591Z,0.00
2022-10-09T04:55:58.631Z,0.00
2022-10-09T04:56:58.559Z,0.00
2022-10-09T04:57:58.542Z,0.00
2022-10-09T04:59:01.529Z,0.00
2022-10-09T05:00:01.543Z,0.00
2022-10-09T05:00:58.545Z,0.00
2022-10-09T05:01:58.583Z,0.00
2022-10-09T05:02:58.471Z,0.00
2022-10-09T05:03:58.461Z,0.00
2022-10-09T05:04:58.434Z,0.00
2022-10-09T05:05:58.423Z,4.00
2022-10-09T05:06:58.434Z,0.00
2022-10-09T05:07:58.405Z,0.00
2022-10-09T05:08:58.376Z,0.00
2022-10-09T05:09:58.372Z,4.00
2022-10-09T05:10:58.353Z,0.00
2022-10-09T05:11:58.341Z,4.00
2022-10-09T05:12:58.359Z,4.00
2022-10-09T05:13:58.316Z,4.00
2022-10-09T05:14:58.396Z,4.00
2022-10-09T05:15:58.333Z,4.00
2022-10-09T05:17:14.819Z,8.00
2022-10-09T05:17:59.287Z,8.00
2022-10-09T05:19:01.238Z,8.00
2022-10-09T05:20:01.274Z,8.00
2022-10-09T05:20:58.217Z,12.00
2022-10-09T05:21:58.197Z,16.00
2022-10-09T05:22:58.192Z,16.00
2022-10-09T05:23:58.167Z,20.00
2022-10-09T05:24:58.148Z,20.00
2022-10-09T05:25:58.178Z,24.00
2022-10-09T05:26:58.128Z,28.00
2022-10-09T05:27:58.171Z,32.00
2022-10-09T05:28:58.091Z,36.00
2022-10-09T05:29:58.098Z,40.00
2022-10-09T05:30:58.079Z,44.00
2022-10-09T05:31:58.090Z,44.00
2022-10-09T05:32:58.041Z,52.00
2022-10-09T05:33:58.071Z,56.00
2022-10-09T05:34:58.013Z,60.00
2022-10-09T05:35:58.002Z,60.00
2022-10-09T05:36:57.981Z,68.00
2022-10-09T05:37:57.962Z,76.00
2022-10-09T05:39:01.012Z,84.00
2022-10-09T05:40:00.958Z,92.00
2022-10-09T05:40:57.920Z,100.00
2022-10-09T05:41:57.912Z,108.00
2022-10-09T05:42:57.902Z,112.00
2022-10-09T05:43:57.881Z,120.00
2022-10-09T05:44:57.902Z,128.00
2022-10-09T05:45:57.888Z,140.00
2022-10-09T05:46:57.843Z,148.00
2022-10-09T05:47:57.822Z,164.00
2022-10-09T05:48:57.813Z,168.00
2022-10-09T05:49:57.867Z,180.00
2022-10-09T05:50:57.793Z,196.00
2022-10-09T05:51:57.773Z,208.00
2022-10-09T05:52:57.754Z,224.00
2022-10-09T05:53:57.743Z,236.00
2022-10-09T05:54:57.727Z,256.00
2022-10-09T05:56:01.602Z,276.00
2022-10-09T05:56:58.755Z,288.00
2022-10-09T05:57:57.694Z,308.00
2022-10-09T05:59:00.679Z,336.00
2022-10-09T06:00:00.677Z,368.00
2022-10-09T06:00:57.653Z,388.00
2022-10-09T06:01:57.680Z,396.00
2022-10-09T06:02:57.721Z,408.00
2022-10-09T06:03:57.606Z,428.00
2022-10-09T06:04:57.596Z,448.00
2022-10-09T06:05:57.575Z,468.00
2022-10-09T06:06:57.558Z,492.00
2022-10-09T06:07:57.538Z,532.00
2022-10-09T06:08:57.575Z,564.00
2022-10-09T06:09:57.530Z,612.00
2022-10-09T06:10:57.498Z,632.00
2022-10-09T06:11:57.480Z,640.00
2022-10-09T06:12:57.469Z,632.00
2022-10-09T06:13:57.459Z,624.00
2022-10-09T06:14:57.500Z,636.00
2022-10-09T06:15:57.431Z,668.00
2022-10-09T06:16:57.488Z,716.00
2022-10-09T06:17:57.400Z,744.00
2022-10-09T06:19:00.385Z,772.00
2022-10-09T06:20:00.456Z,860.00
2022-10-09T06:20:57.400Z,928.00
2022-10-09T06:21:57.351Z,932.00
2022-10-09T06:22:57.321Z,908.00
2022-10-09T06:23:57.331Z,900.00
2022-10-09T06:24:57.302Z,888.00
2022-10-09T06:25:57.323Z,876.00
2022-10-09T06:26:57.282Z,948.00
2022-10-09T06:27:57.261Z,972.00
2022-10-09T06:28:57.250Z,1016.00
2022-10-09T06:29:57.233Z,1060.00
2022-10-09T06:30:57.270Z,1152.00
2022-10-09T06:31:57.231Z,1140.00
2022-10-09T06:32:57.233Z,1144.00
2022-10-09T06:33:57.182Z,1136.00
2022-10-09T06:34:57.165Z,1204.00
2022-10-09T06:36:05.586Z,1204.00
2022-10-09T06:36:58.139Z,1240.00
2022-10-09T06:37:57.178Z,1356.00
2022-10-09T06:39:00.184Z,1344.00
2022-10-09T06:40:00.133Z,1280.00
2022-10-09T06:40:57.085Z,1180.00
2022-10-09T06:41:57.076Z,1300.00
2022-10-09T06:42:57.055Z,1512.00
2022-10-09T06:43:57.055Z,1552.00
2022-10-09T06:44:57.057Z,1516.00
2022-10-09T06:45:57.058Z,1516.00
2022-10-09T06:46:56.996Z,1548.00
2022-10-09T06:47:56.998Z,1632.00
2022-10-09T06:48:56.997Z,1816.00
2022-10-09T06:49:56.988Z,1892.00
2022-10-09T06:50:56.977Z,1776.00
2022-10-09T06:51:56.940Z,1876.00
2022-10-09T06:52:56.917Z,1964.00
2022-10-09T06:53:56.908Z,1956.00
2022-10-09T06:54:56.908Z,2008.00
2022-10-09T06:55:56.891Z,1964.00
2022-10-09T06:56:56.905Z,2060.00
2022-10-09T06:57:56.862Z,1912.00
2022-10-09T06:58:59.855Z,2100.00
2022-10-09T06:59:59.846Z,2168.00
2022-10-09T07:00:56.817Z,2132.00
2022-10-09T07:01:57.020Z,2132.00
2022-10-09T07:02:56.931Z,2220.00
2022-10-09T07:03:56.780Z,2260.00
2022-10-09T07:04:56.773Z,2228.00
2022-10-09T07:05:56.749Z,2236.00
2022-10-09T07:06:56.730Z,2456.00
2022-10-09T07:07:56.721Z,2404.00
2022-10-09T07:08:56.773Z,2460.00
2022-10-09T07:09:56.691Z,2288.00
2022-10-09T07:10:56.681Z,2300.00
2022-10-09T07:11:56.672Z,2244.00
2022-10-09T07:12:56.643Z,1976.00
2022-10-09T07:13:56.645Z,2092.00
2022-10-09T07:14:56.715Z,2044.00
2022-10-09T07:15:58.033Z,2164.00
2022-10-09T07:16:56.603Z,2224.00
2022-10-09T07:17:56.592Z,2248.00
2022-10-09T07:18:59.574Z,2116.00
2022-10-09T07:19:59.624Z,2272.00
2022-10-09T07:20:56.551Z,2572.00
2022-10-09T07:21:56.525Z,2696.00
2022-10-09T07:22:56.514Z,2492.00
2022-10-09T07:23:56.505Z,2492.00
2022-10-09T07:24:56.493Z,2572.00
2022-10-09T07:25:56.504Z,2728.00
2022-10-09T07:26:56.471Z,2524.00
2022-10-09T07:27:56.474Z,2776.00
2022-10-09T07:28:56.436Z,2392.00
2022-10-09T07:29:56.426Z,2236.00
2022-10-09T07:30:56.459Z,2500.00
2022-10-09T07:31:56.416Z,2420.00
2022-10-09T07:32:56.387Z,2644.00
2022-10-09T07:33:56.369Z,2616.00
2022-10-09T07:34:56.377Z,2556.00
2022-10-09T07:35:56.338Z,2572.00
2022-10-09T07:36:56.370Z,2588.00
2022-10-09T07:37:56.317Z,2700.00
2022-10-09T07:38:59.296Z,2736.00
2022-10-09T07:39:59.299Z,2840.00
2022-10-09T07:40:56.268Z,2632.00
2022-10-09T07:41:56.258Z,2760.00
2022-10-09T07:42:56.288Z,3008.00
2022-10-09T07:43:56.229Z,3172.00
2022-10-09T07:44:56.219Z,3224.00
2022-10-09T07:45:56.236Z,3128.00
2022-10-09T07:46:56.226Z,2972.00
2022-10-09T07:47:56.183Z,3080.00
2022-10-09T07:48:56.228Z,2912.00
2022-10-09T07:49:56.140Z,2920.00
2022-10-09T07:50:56.130Z,3304.00
2022-10-09T07:51:56.123Z,3052.00
2022-10-09T07:52:56.102Z,3540.00
2022-10-09T07:53:56.100Z,3280.00
2022-10-09T07:54:56.151Z,2812.00
2022-10-09T07:55:56.052Z,2812.00
2022-10-09T07:56:56.053Z,2672.00
2022-10-09T07:57:56.043Z,2928.00
2022-10-09T07:58:59.013Z,3168.00
2022-10-09T07:59:59.073Z,3132.00
2022-10-09T08:00:55.996Z,2904.00
2022-10-09T08:01:56.051Z,3292.00
2022-10-09T08:02:56.023Z,3220.00
2022-10-09T08:03:55.962Z,3084.00
2022-10-09T08:04:55.934Z,3736.00
2022-10-09T08:05:55.994Z,3540.00
2022-10-09T08:06:55.914Z,3228.00
2022-10-09T08:07:55.894Z,3604.00
2022-10-09T08:08:55.883Z,3156.00
2022-10-09T08:09:55.864Z,3848.00
2022-10-09T08:10:55.865Z,3188.00
2022-10-09T08:11:55.867Z,3004.00
2022-10-09T08:12:55.826Z,3080.00
2022-10-09T08:13:55.825Z,2772.00
2022-10-09T08:14:55.818Z,3336.00
2022-10-09T08:15:55.864Z,3356.00
2022-10-09T08:16:55.778Z,3528.00
2022-10-09T08:17:55.757Z,3360.00
2022-10-09T08:18:58.761Z,3636.00
2022-10-09T08:19:58.780Z,3884.00
2022-10-09T08:20:55.717Z,3740.00
2022-10-09T08:21:57.337Z,3376.00
2022-10-09T08:22:55.689Z,3004.00
2022-10-09T08:23:55.683Z,2732.00
2022-10-09T08:24:55.679Z,3012.00
2022-10-09T08:25:55.646Z,3224.00
2022-10-09T08:26:55.640Z,3504.00
2022-10-09T08:27:55.669Z,3404.00
2022-10-09T08:28:55.628Z,3080.00
2022-10-09T08:29:55.601Z,2960.00
2022-10-09T08:30:55.656Z,2760.00
2022-10-09T08:31:55.570Z,2784.00
2022-10-09T08:32:55.552Z,2828.00
2022-10-09T08:33:55.568Z,2664.00
2022-10-09T08:34:55.522Z,2576.00
2022-10-09T08:35:55.513Z,2552.00
2022-10-09T08:36:55.502Z,2476.00
2022-10-09T08:37:55.491Z,2440.00
2022-10-09T08:38:58.520Z,2208.00
2022-10-09T08:39:58.471Z,2416.00
2022-10-09T08:40:58.195Z,2372.00
2022-10-09T08:41:55.428Z,2556.00
2022-10-09T08:42:55.424Z,2452.00
2022-10-09T08:43:55.395Z,2508.00
2022-10-09T08:44:55.434Z,2416.00
2022-10-09T08:45:55.384Z,2392.00
2022-10-09T08:46:55.363Z,2480.00
2022-10-09T08:47:55.356Z,2432.00
2022-10-09T08:48:55.345Z,2636.00
2022-10-09T08:49:55.315Z,2516.00
2022-10-09T08:50:55.367Z,2484.00
2022-10-09T08:51:55.295Z,2676.00
2022-10-09T08:52:55.526Z,2372.00
2022-10-09T08:53:55.256Z,2420.00
2022-10-09T08:54:55.257Z,2484.00
2022-10-09T08:55:55.241Z,2412.00
2022-10-09T08:56:55.267Z,2464.00
2022-10-09T08:57:55.208Z,2432.00
2022-10-09T08:58:58.198Z,2572.00
2022-10-09T08:59:58.202Z,2520.00
2022-10-09T09:00:55.202Z,2532.00
2022-10-09T09:01:55.208Z,2560.00
2022-10-09T09:02:55.220Z,2592.00
2022-10-09T09:03:55.129Z,2572.00
2022-10-09T09:04:55.120Z,2568.00
2022-10-09T09:05:55.103Z,2572.00
2022-10-09T09:06:55.088Z,2564.00
2022-10-09T09:07:55.131Z,2592.00
2022-10-09T09:08:55.062Z,2604.00
2022-10-09T09:09:55.051Z,2620.00
2022-10-09T09:10:55.042Z,2620.00
2022-10-09T09:11:55.020Z,2628.00
2022-10-09T09:12:55.020Z,2632.00
2022-10-09T09:13:55.017Z,2636.00
2022-10-09T09:14:54.985Z,2644.00
2022-10-09T09:15:55.050Z,2640.00
2022-10-09T09:16:54.961Z,2664.00
2022-10-09T09:17:54.942Z,2680.00
2022-10-09T09:18:57.940Z,2680.00
2022-10-09T09:19:57.915Z,2696.00
2022-10-09T09:20:54.965Z,2708.00
2022-10-09T09:21:54.885Z,2724.00
2022-10-09T09:22:54.871Z,2732.00
2022-10-09T09:23:54.855Z,2728.00
2022-10-09T09:24:54.835Z,2732.00
2022-10-09T09:25:54.825Z,2740.00
2022-10-09T09:26:54.874Z,2744.00
2022-10-09T09:27:54.802Z,2756.00
2022-10-09T09:28:54.836Z,2772.00
2022-10-09T09:29:54.776Z,2780.00
2022-10-09T09:30:54.788Z,2792.00
2022-10-09T09:31:54.738Z,2804.00
2022-10-09T09:32:54.789Z,2804.00
2022-10-09T09:33:54.717Z,2820.00
2022-10-09T09:34:54.767Z,2820.00
2022-10-09T09:35:54.718Z,2812.00
2022-10-09T09:36:54.711Z,2820.00
2022-10-09T09:37:54.660Z,2812.00
2022-10-09T09:40:07.798Z,2836.00
2022-10-09T09:40:55.624Z,2860.00
2022-10-09T09:41:54.599Z,2860.00
2022-10-09T09:42:54.660Z,2860.00
2022-10-09T09:43:54.579Z,2868.00
2022-10-09T09:44:54.560Z,2872.00
2022-10-09T09:45:54.558Z,2884.00
2022-10-09T09:46:54.612Z,2896.00
2022-10-09T09:47:54.523Z,2916.00
2022-10-09T09:48:54.533Z,2912.00
2022-10-09T09:49:54.511Z,2944.00
2022-10-09T09:51:10.126Z,2940.00
2022-10-09T09:51:55.492Z,2956.00
2022-10-09T09:52:54.453Z,2952.00
2022-10-09T09:53:54.431Z,2952.00
2022-10-09T09:54:54.444Z,2960.00
2022-10-09T09:55:54.421Z,2976.00
2022-10-09T09:57:12.084Z,2972.00
2022-10-09T09:57:55.376Z,2992.00
2022-10-09T09:58:57.365Z,3000.00
2022-10-09T09:59:57.408Z,3020.00
2022-10-09T10:00:54.395Z,3020.00
2022-10-09T10:01:54.441Z,3028.00
2022-10-09T10:02:54.298Z,3040.00
2022-10-09T10:03:54.279Z,3032.00
2022-10-09T10:04:54.393Z,3036.00
2022-10-09T10:05:54.264Z,3024.00
2022-10-09T10:06:54.247Z,3052.00
2022-10-09T10:07:54.304Z,3076.00
2022-10-09T10:08:54.221Z,3092.00
2022-10-09T10:09:54.235Z,3120.00
2022-10-09T10:10:54.198Z,3160.00
2022-10-09T10:11:54.169Z,3196.00
2022-10-09T10:12:54.219Z,3216.00
2022-10-09T10:13:54.229Z,3216.00
2022-10-09T10:14:54.140Z,3232.00
2022-10-09T10:15:54.211Z,3244.00
2022-10-09T10:16:54.143Z,3256.00
2022-10-09T10:17:54.121Z,3300.00
2022-10-09T10:18:57.124Z,3300.00
2022-10-09T10:19:57.127Z,3260.00
2022-10-09T10:20:54.150Z,3292.00
2022-10-09T10:21:54.065Z,3328.00
2022-10-09T10:22:54.062Z,3300.00
2022-10-09T10:23:54.047Z,3264.00
2022-10-09T10:24:54.087Z,3280.00
2022-10-09T10:25:53.982Z,3284.00
2022-10-09T10:26:53.975Z,3300.00
2022-10-09T10:27:53.994Z,3208.00
2022-10-09T10:28:53.949Z,3332.00
2022-10-09T10:29:53.965Z,3356.00
2022-10-09T10:30:53.998Z,2388.00
2022-10-09T10:31:53.896Z,2300.00
2022-10-09T10:32:53.885Z,2384.00
2022-10-09T10:33:53.867Z,2448.00
2022-10-09T10:34:53.858Z,2684.00
2022-10-09T10:35:53.870Z,2608.00
2022-10-09T10:36:53.897Z,2788.00
2022-10-09T10:37:53.825Z,3096.00
2022-10-09T10:38:56.835Z,3868.00
2022-10-09T10:39:56.818Z,3932.00
2022-10-09T10:40:53.830Z,3856.00
2022-10-09T10:41:53.788Z,3844.00
2022-10-09T10:42:59.239Z,4052.00
2022-10-09T10:43:54.750Z,4284.00
2022-10-09T10:44:53.720Z,4208.00
2022-10-09T10:45:53.720Z,4132.00
2022-10-09T10:46:53.783Z,3956.00
2022-10-09T10:47:53.721Z,3900.00
2022-10-09T10:48:53.691Z,3832.00
2022-10-09T10:49:53.675Z,3812.00
2022-10-09T10:50:53.645Z,3804.00
2022-10-09T10:51:53.622Z,3824.00
2022-10-09T10:52:53.669Z,3824.00
2022-10-09T10:53:53.672Z,3804.00
2022-10-09T10:54:53.614Z,3788.00
2022-10-09T10:55:53.563Z,3760.00
2022-10-09T10:56:53.575Z,3740.00
2022-10-09T10:57:53.576Z,3704.00
2022-10-09T10:58:56.605Z,3680.00
2022-10-09T10:59:56.577Z,3692.00
2022-10-09T11:00:53.548Z,3704.00
2022-10-09T11:01:53.495Z,3756.00
2022-10-09T11:02:53.724Z,3836.00
2022-10-09T11:03:53.476Z,3884.00
2022-10-09T11:04:53.517Z,4156.00
2022-10-09T11:05:53.446Z,4296.00
2022-10-09T11:06:53.468Z,4328.00
2022-10-09T11:07:56.578Z,4316.00
2022-10-09T11:08:54.397Z,3220.00
2022-10-09T11:09:53.378Z,3204.00
2022-10-09T11:10:53.388Z,4256.00
2022-10-09T11:11:53.431Z,4784.00
2022-10-09T11:12:53.364Z,4728.00
2022-10-09T11:13:53.341Z,4660.00
2022-10-09T11:14:53.300Z,4592.00
2022-10-09T11:15:53.327Z,4612.00
2022-10-09T11:16:53.288Z,4652.00
2022-10-09T11:17:53.303Z,4552.00
2022-10-09T11:18:56.291Z,4460.00
2022-10-09T11:19:56.291Z,4504.00
2022-10-09T11:20:53.291Z,4596.00
2022-10-09T11:21:53.222Z,4620.00
2022-10-09T11:22:53.217Z,4628.00
2022-10-09T11:23:53.213Z,4676.00
2022-10-09T11:24:53.194Z,4624.00
2022-10-09T11:25:53.174Z,4616.00
2022-10-09T11:26:53.142Z,4656.00
2022-10-09T11:27:53.145Z,4632.00
2022-10-09T11:28:53.173Z,4572.00
2022-10-09T11:29:53.164Z,4316.00
2022-10-09T11:30:53.125Z,3256.00
2022-10-09T11:31:53.144Z,3132.00
2022-10-09T11:32:53.067Z,3760.00
2022-10-09T11:33:53.079Z,4444.00
2022-10-09T11:34:53.060Z,4060.00
2022-10-09T11:35:53.050Z,3148.00
2022-10-09T11:36:53.000Z,4364.00
2022-10-09T11:37:53.006Z,3452.00
2022-10-09T11:38:56.009Z,4304.00
2022-10-09T11:39:56.030Z,3132.00
2022-10-09T11:40:52.965Z,4228.00
2022-10-09T11:41:52.928Z,4160.00
2022-10-09T11:42:52.960Z,3528.00
2022-10-09T11:43:52.921Z,4392.00
2022-10-09T11:44:52.919Z,3388.00
2022-10-09T11:45:52.956Z,4616.00
2022-10-09T11:46:52.861Z,4596.00
2022-10-09T11:47:52.966Z,4708.00
2022-10-09T11:48:52.893Z,4448.00
2022-10-09T11:49:52.832Z,4728.00
2022-10-09T11:50:52.894Z,3464.00
2022-10-09T11:51:52.817Z,4148.00
2022-10-09T11:52:52.804Z,4264.00
2022-10-09T11:53:52.804Z,3588.00
2022-10-09T11:54:52.776Z,3560.00
2022-10-09T11:55:52.775Z,2976.00
2022-10-09T11:56:52.775Z,2904.00
2022-10-09T11:57:53.055Z,3024.00
2022-10-09T11:58:55.717Z,3540.00
2022-10-09T11:59:55.707Z,3488.00
2022-10-09T12:00:52.724Z,3564.00
2022-10-09T12:01:52.753Z,3824.00
2022-10-09T12:02:52.708Z,5020.00
2022-10-09T12:03:52.646Z,4948.00
2022-10-09T12:04:55.260Z,4780.00
2022-10-09T12:05:52.638Z,4552.00
2022-10-09T12:06:52.668Z,4288.00
2022-10-09T12:07:52.630Z,4216.00
2022-10-09T12:08:52.659Z,4212.00
2022-10-09T12:09:52.578Z,4184.00
2022-10-09T12:10:52.583Z,4220.00
2022-10-09T12:11:52.551Z,4100.00
2022-10-09T12:12:52.532Z,4084.00
2022-10-09T12:13:52.532Z,3012.00
2022-10-09T12:14:52.542Z,2864.00
2022-10-09T12:15:52.493Z,3092.00
2022-10-09T12:16:52.589Z,3048.00
2022-10-09T12:17:52.473Z,4020.00
2022-10-09T12:18:55.481Z,3856.00
2022-10-09T12:20:00.187Z,3764.00
2022-10-09T12:20:53.413Z,3980.00
2022-10-09T12:21:52.404Z,4152.00
2022-10-09T12:23:13.915Z,4136.00
2022-10-09T12:23:53.371Z,3212.00
2022-10-09T12:24:52.414Z,4232.00
2022-10-09T12:25:52.367Z,2992.00
2022-10-09T12:26:52.343Z,3552.00
2022-10-09T12:27:52.359Z,2880.00
2022-10-09T12:28:52.369Z,2952.00
2022-10-09T12:29:52.350Z,4152.00
2022-10-09T12:30:52.341Z,4340.00
2022-10-09T12:31:52.262Z,4260.00
2022-10-09T12:32:52.755Z,4460.00
2022-10-09T12:33:52.259Z,4388.00
2022-10-09T12:34:52.258Z,4384.00
2022-10-09T12:35:52.219Z,4336.00
2022-10-09T12:36:52.218Z,4308.00
2022-10-09T12:37:52.243Z,4208.00